Time;durP1;ratioP1;P1;durP2;ratioP2;P2;SDS_P1;SDS_P2;PMS_P1;PMS_P2;Temp;Humidity;BMP_temperature;BMP_pressure;BME280_temperature;BME280_humidity;BME280_pressure;Samples;Min_cycle;Max_cycle;Signal;HPM_P1;HPM_P2
2022/10/22 00:01:16;;;;;;;9.25;5.55;;;13.90;99.90;;;;;;4990537;28;20049;-82
2022/10/22 00:03:42;;;;;;;12.63;5.70;;;13.60;99.90;;;;;;4982301;28;20819;-82
2022/10/22 00:06:07;;;;;;;9.52;5.70;;;12.80;99.90;;;;;;5005931;28;20049;-82
2022/10/22 00:08:33;;;;;;;7.38;5.55;;;13.00;99.90;;;;;;5007057;28;20040;-80
2022/10/22 00:11:06;;;;;;;10.52;6.15;;;12.70;99.90;;;;;;5007274;28;20624;-82
2022/10/22 00:13:31;;;;;;;8.88;5.20;;;13.40;99.90;;;;;;5006447;28;20045;-82
2022/10/22 00:15:57;;;;;;;9.55;5.68;;;13.10;99.90;;;;;;5005756;28;20045;-82
2022/10/22 00:18:23;;;;;;;8.88;6.18;;;13.40;99.90;;;;;;5007795;28;20080;-83
2022/10/22 00:20:48;;;;;;;7.65;5.70;;;12.70;99.90;;;;;;5008521;28;20165;-82
2022/10/22 00:23:14;;;;;;;12.95;5.05;;;12.70;99.90;;;;;;4984094;28;20096;-83
2022/10/22 00:25:40;;;;;;;8.05;5.90;;;12.60;99.90;;;;;;4980134;28;20039;-83
2022/10/22 00:28:06;;;;;;;8.25;5.88;;;13.00;99.90;;;;;;5008878;28;20034;-83
2022/10/22 00:30:32;;;;;;;7.80;5.22;;;12.60;99.90;;;;;;5007869;28;20044;-82
2022/10/22 00:32:57;;;;;;;7.22;4.97;;;13.00;99.90;;;;;;5009467;28;20034;-84
2022/10/22 00:35:23;;;;;;;10.35;5.80;;;12.60;99.90;;;;;;4992052;28;20528;-81
2022/10/22 00:37:48;;;;;;;6.45;5.22;;;12.60;99.90;;;;;;5006181;28;20046;-81
2022/10/22 00:40:14;;;;;;;12.68;4.95;;;12.50;99.90;;;;;;5008991;28;20100;-82
2022/10/22 00:42:40;;;;;;;12.45;5.95;;;13.40;99.90;;;;;;5007562;28;20046;-82
2022/10/22 00:45:15;;;;;;;10.05;5.60;;;13.80;99.90;;;;;;4991625;28;20038;-83
2022/10/22 00:47:59;;;;;;;10.48;5.15;;;12.50;99.90;;;;;;5002581;28;20050;-83
2022/10/22 00:50:30;;;;;;;5.72;4.75;;;12.50;99.90;;;;;;5007437;28;20494;-82
2022/10/22 00:52:57;;;;;;;5.50;4.45;;;12.50;99.90;;;;;;5002851;28;20100;-83
2022/10/22 00:55:25;;;;;;;10.57;6.57;;;12.50;99.90;;;;;;4991837;28;20074;-81
2022/10/22 00:57:53;;;;;;;12.68;5.38;;;12.40;99.90;;;;;;5008274;28;20034;-82
2022/10/22 01:00:19;;;;;;;11.18;5.47;;;12.40;99.90;;;;;;4992168;28;20161;-83
2022/10/22 01:02:45;;;;;;;11.27;5.28;;;12.40;99.90;;;;;;4991147;28;20054;-82
2022/10/22 01:05:11;;;;;;;10.07;6.00;;;12.40;99.90;;;;;;5005717;28;20086;-82
2022/10/22 01:07:45;;;;;;;6.90;5.03;;;12.40;99.90;;;;;;5007190;28;20085;-82
2022/10/22 01:10:20;;;;;;;10.50;4.72;;;12.30;99.90;;;;;;5008450;28;20534;-80
2022/10/22 01:12:58;;;;;;;8.00;4.93;;;13.40;99.90;;;;;;5008016;28;20061;-83
2022/10/22 01:15:30;;;;;;;7.10;5.63;;;12.30;99.90;;;;;;5009518;28;20041;-81
2022/10/22 01:18:07;;;;;;;7.65;5.50;;;12.30;99.90;;;;;;5007845;28;20046;-81
2022/10/22 01:20:54;;;;;;;7.47;5.00;;;12.30;99.90;;;;;;5011391;28;20050;-81
2022/10/22 01:23:47;;;;;;;7.20;5.63;;;12.30;99.90;;;;;;5011006;28;20042;-83
2022/10/22 01:26:52;;;;;;;13.95;5.00;;;12.30;99.90;;;;;;5005807;28;20053;-82
2022/10/22 01:29:23;;;;;;;7.20;6.00;;;12.30;99.90;;;;;;5006350;28;20429;-82
2022/10/22 01:31:58;;;;;;;11.15;6.28;;;12.30;99.90;;;;;;5011741;28;20038;-82
2022/10/22 01:34:29;;;;;;;7.60;5.43;;;12.30;99.90;;;;;;4993599;28;20050;-81
2022/10/22 01:36:56;;;;;;;6.60;5.53;;;12.30;99.90;;;;;;4995769;28;20053;-83
2022/10/22 01:39:24;;;;;;;9.10;6.05;;;12.30;99.90;;;;;;5010381;28;20195;-83
2022/10/22 01:41:52;;;;;;;8.95;5.55;;;12.30;99.90;;;;;;5010208;28;20045;-81
2022/10/22 01:44:30;;;;;;;9.10;5.32;;;13.60;99.90;;;;;;5010993;28;20034;-82
2022/10/22 01:47:20;;;;;;;7.03;5.28;;;12.30;99.90;;;;;;5009608;28;20042;-82
2022/10/22 01:50:09;;;;;;;9.82;5.95;;;12.30;99.90;;;;;;5011739;28;20676;-83
2022/10/22 01:52:55;;;;;;;11.65;6.30;;;12.30;99.90;;;;;;5024082;28;20582;-82
2022/10/22 01:55:27;;;;;;;10.30;6.28;;;12.30;99.90;;;;;;5012501;28;20477;-82
2022/10/22 01:58:02;;;;;;;7.72;5.85;;;12.30;99.90;;;;;;5031945;28;20088;-82
2022/10/22 02:00:28;;;;;;;6.78;6.07;;;12.70;99.90;;;;;;5030412;28;20053;-82
2022/10/22 02:03:26;;;;;;;16.65;6.05;;;12.30;99.90;;;;;;5012510;28;20052;-82
2022/10/22 02:05:58;;;;;;;10.13;6.60;;;12.30;99.90;;;;;;4989220;28;20452;-81
2022/10/22 02:08:28;;;;;;;13.20;6.13;;;12.30;99.90;;;;;;5030565;28;20116;-81
2022/10/22 02:10:54;;;;;;;11.27;5.97;;;12.30;99.90;;;;;;5030830;28;20065;-82
2022/10/22 02:13:27;;;;;;;14.18;6.45;;;12.30;99.90;;;;;;5013680;28;20531;-82
2022/10/22 02:15:54;;;;;;;9.88;6.53;;;12.30;99.90;;;;;;5029483;28;20052;-80
2022/10/22 02:18:27;;;;;;;14.90;6.95;;;12.30;99.90;;;;;;5031392;28;20041;-82
2022/10/22 02:20:55;;;;;;;9.70;6.45;;;12.20;99.90;;;;;;5012776;28;20452;-81
2022/10/22 02:23:21;;;;;;;12.40;6.72;;;12.40;99.90;;;;;;5012160;28;20048;-82
2022/10/22 02:26:02;;;;;;;10.98;7.05;;;12.30;99.90;;;;;;5013708;28;20050;-82
2022/10/22 02:28:45;;;;;;;10.32;5.97;;;12.30;99.90;;;;;;5012927;28;20045;-84
2022/10/22 02:31:21;;;;;;;13.57;7.97;;;12.30;99.90;;;;;;5009728;28;20052;-82
2022/10/22 02:33:49;;;;;;;13.07;6.63;;;12.30;99.90;;;;;;5028733;28;20499;-83
2022/10/22 02:36:17;;;;;;;9.10;6.38;;;12.30;99.90;;;;;;5012653;28;20053;-81
2022/10/22 02:38:44;;;;;;;9.60;5.97;;;13.20;99.90;;;;;;5013040;28;20053;-81
2022/10/22 02:41:10;;;;;;;10.88;6.88;;;12.40;99.90;;;;;;5030610;28;20041;-81
2022/10/22 02:43:44;;;;;;;8.07;5.70;;;13.10;99.90;;;;;;5010112;28;20568;-82
2022/10/22 02:46:10;;;;;;;10.65;6.53;;;12.40;99.90;;;;;;5008695;28;20497;-81
2022/10/22 02:48:36;;;;;;;8.13;6.00;;;13.40;99.90;;;;;;5005652;28;20040;-83
2022/10/22 02:51:02;;;;;;;12.48;6.35;;;13.50;99.90;;;;;;5004053;28;20037;-79
2022/10/22 02:53:28;;;;;;;17.50;7.10;;;13.60;99.90;;;;;;5010459;28;20045;-81
2022/10/22 02:55:54;;;;;;;11.10;6.72;;;12.40;99.90;;;;;;5012583;28;20382;-82
2022/10/22 02:58:19;;;;;;;17.15;6.78;;;12.40;99.90;;;;;;4996199;28;20084;-82
2022/10/22 03:00:45;;;;;;;11.15;6.88;;;12.40;99.90;;;;;;5029800;28;20063;-83
2022/10/22 10:35:14;;;;;;;15.52;4.68;;;15.00;99.90;;;;;;5994806;23;21064;31
2022/10/22 10:37:54;;;;;;;11.65;3.72;;;15.00;99.90;;;;;;4865980;29;20054;-73
2022/10/22 10:40:47;;;;;;;10.00;4.72;;;15.00;99.90;;;;;;4858400;29;20134;-87
2022/10/22 10:43:27;;;;;;;14.95;4.13;;;15.10;99.90;;;;;;4841180;29;20128;-73
2022/10/22 10:46:04;;;;;;;11.38;3.95;;;15.10;99.90;;;;;;4856365;29;20128;-76
2022/10/22 10:48:43;;;;;;;11.68;4.72;;;15.10;99.90;;;;;;4855073;29;20053;-73
2022/10/22 10:51:22;;;;;;;9.45;4.00;;;15.10;99.90;;;;;;4195513;29;10000805;-77
2022/10/22 10:54:19;;;;;;;9.57;4.10;;;15.20;99.90;;;;;;4856904;29;20041;-75
2022/10/22 10:56:59;;;;;;;10.32;5.35;;;15.10;99.90;;;;;;4859035;29;20049;-76
2022/10/22 10:59:45;;;;;;;13.10;5.22;;;15.00;99.90;;;;;;4853815;29;20041;-75
2022/10/22 11:02:20;;;;;;;12.05;5.43;;;15.00;99.90;;;;;;4854882;29;20077;-76
2022/10/22 11:05:01;;;;;;;12.18;5.68;;;15.20;99.90;;;;;;4864558;29;20272;-82
2022/10/22 11:07:37;;;;;;;11.95;5.75;;;14.90;99.90;;;;;;4854984;29;20045;-76
2022/10/22 11:10:16;;;;;;;12.50;5.82;;;14.80;99.90;;;;;;4869446;29;20541;-80
2022/10/22 11:12:47;;;;;;;15.02;6.60;;;14.70;99.90;;;;;;4854830;29;20045;-76
2022/10/22 11:15:25;;;;;;;17.52;7.55;;;14.60;99.90;;;;;;4846934;29;20128;-79
2022/10/22 11:17:53;;;;;;;17.48;7.93;;;14.60;99.90;;;;;;4852538;29;20042;-85
2022/10/22 11:20:25;;;;;;;15.60;5.55;;;14.60;99.90;;;;;;4855364;29;20041;-86
2022/10/22 11:22:58;;;;;;;12.23;6.18;;;16.10;99.90;;;;;;4853747;29;20049;-79
2022/10/22 11:25:29;;;;;;;14.32;5.15;;;14.70;99.90;;;;;;4837769;29;20049;-75
2022/10/22 11:28:10;;;;;;;16.42;6.82;;;14.80;99.90;;;;;;4866836;29;20048;-81
2022/10/22 11:30:37;;;;;;;12.57;6.22;;;14.90;99.90;;;;;;4864589;29;20238;-75
2022/10/22 11:33:08;;;;;;;14.77;6.63;;;15.00;99.90;;;;;;4846896;29;20128;-77
2022/10/22 11:35:41;;;;;;;15.32;6.38;;;16.30;99.90;;;;;;4867083;29;20129;-75
2022/10/22 11:38:13;;;;;;;16.83;6.63;;;15.00;99.90;;;;;;4868992;29;20046;-78
2022/10/22 11:40:46;;;;;;;15.85;6.20;;;15.60;99.90;;;;;;4854586;29;20100;-84
2022/10/22 11:43:34;;;;;;;11.82;6.88;;;15.00;99.90;;;;;;4854380;29;20053;-78
2022/10/22 11:46:28;;;;;;;21.67;6.88;;;15.00;99.90;;;;;;4853501;29;20064;-83
2022/10/22 11:49:15;;;;;;;14.85;6.75;;;14.90;99.90;;;;;;4848542;29;20076;-75
2022/10/22 11:51:43;;;;;;;16.67;6.97;;;14.90;99.90;;;;;;4865253;29;20500;-81
2022/10/22 11:54:35;;;;;;;14.93;7.30;;;16.30;99.90;;;;;;4853540;29;20049;-75
2022/10/22 11:57:13;;;;;;;10.25;7.22;;;14.90;99.90;;;;;;4846830;29;20181;-83
2022/10/22 11:59:40;;;;;;;15.23;7.15;;;14.90;99.90;;;;;;4853536;29;20057;-76
2022/10/22 12:02:27;;;;;;;16.88;7.32;;;14.90;99.90;;;;;;4853605;29;20056;-82
2022/10/22 12:04:55;;;;;;;14.05;6.90;;;14.90;99.90;;;;;;4854124;29;20545;-74
2022/10/22 12:07:33;;;;;;;14.75;7.28;;;14.90;99.90;;;;;;4852606;29;20055;-81
2022/10/22 12:09:59;;;;;;;20.60;7.03;;;14.90;99.90;;;;;;4853484;29;20048;-76
2022/10/22 12:12:27;;;;;;;16.25;6.63;;;14.90;99.90;;;;;;4854197;29;20037;-81
2022/10/22 12:14:57;;;;;;;9.90;7.05;;;16.20;99.90;;;;;;4854010;29;20680;-75
2022/10/22 12:17:24;;;;;;;14.35;8.15;;;15.90;99.90;;;;;;4855107;29;20046;-86
2022/10/22 12:20:02;;;;;;;13.50;6.00;;;15.10;99.90;;;;;;4853833;29;20084;-75
2022/10/22 12:22:37;;;;;;;14.32;5.78;;;15.20;99.90;;;;;;4853208;29;20156;-80
2022/10/22 12:25:15;;;;;;;10.90;4.75;;;15.20;99.90;;;;;;4855151;29;20412;-78
2022/10/22 12:27:41;;;;;;;16.42;5.13;;;15.30;99.90;;;;;;4859122;29;20053;-85
2022/10/22 12:30:23;;;;;;;12.10;5.00;;;16.20;99.90;;;;;;4855677;29;20045;-77
2022/10/22 12:32:53;;;;;;;14.68;5.63;;;15.20;99.90;;;;;;4869221;29;20609;-87
2022/10/22 12:35:21;;;;;;;8.63;5.00;;;15.20;99.90;;;;;;4854235;29;20061;-86
2022/10/22 12:37:53;;;;;;;12.00;4.68;;;15.30;99.90;;;;;;4852043;29;20425;-85
2022/10/22 12:40:26;;;;;;;9.77;4.80;;;15.60;99.90;;;;;;4853284;29;20060;-77
2022/10/22 12:43:01;;;;;;;10.70;4.22;;;16.00;99.90;;;;;;4854670;29;20049;-81
2022/10/22 12:45:32;;;;;;;16.83;5.20;;;15.20;99.90;;;;;;4859476;29;20049;-84
2022/10/22 12:48:01;;;;;;;12.45;4.80;;;15.20;99.90;;;;;;4854333;29;20185;-77
2022/10/22 12:50:32;;;;;;;14.23;6.05;;;15.90;99.90;;;;;;4854567;29;20053;-85
2022/10/22 12:52:58;;;;;;;18.50;5.00;;;15.20;99.90;;;;;;4855025;29;20057;-75
2022/10/22 12:55:25;;;;;;;12.23;4.50;;;15.20;99.90;;;;;;4852558;29;20049;-81
2022/10/22 12:57:51;;;;;;;12.77;4.35;;;15.30;99.90;;;;;;4853222;29;20048;-78
2022/10/22 13:00:23;;;;;;;19.83;9.43;;;15.40;99.90;;;;;;4856130;29;20049;-85
2022/10/22 13:02:49;;;;;;;12.35;3.78;;;15.40;99.90;;;;;;4856644;29;20146;-76
2022/10/22 13:05:20;;;;;;;10.00;2.92;;;15.50;99.90;;;;;;4855691;29;20040;-80
2022/10/22 13:07:52;;;;;;;7.95;2.80;;;15.70;99.90;;;;;;4853343;29;20037;-81
2022/10/22 13:10:29;;;;;;;11.10;2.55;;;15.80;99.90;;;;;;4854834;29;20072;-84
2022/10/22 13:12:57;;;;;;;7.25;2.83;;;15.90;99.90;;;;;;4842801;29;20085;-84
2022/10/22 13:15:34;;;;;;;7.72;2.28;;;16.00;99.90;;;;;;4858518;29;20101;-83
2022/10/22 13:18:17;;;;;;;14.20;3.13;;;16.20;99.90;;;;;;4872502;29;20187;-76
2022/10/22 13:21:20;;;;;;;10.13;1.80;;;16.30;99.90;;;;;;4859679;29;20092;-79
2022/10/22 13:23:52;;;;;;;7.28;1.98;;;16.40;99.90;;;;;;4846391;29;20057;-75
2022/10/22 13:26:18;;;;;;;11.15;2.28;;;16.60;99.90;;;;;;4857559;29;20053;-74
2022/10/22 13:28:55;;;;;;;6.38;1.65;;;16.50;99.90;;;;;;4859407;29;20042;-81
2022/10/22 13:31:33;;;;;;;7.32;1.75;;;17.30;99.90;;;;;;4854552;29;20034;-78
2022/10/22 13:34:03;;;;;;;6.93;2.20;;;16.40;99.90;;;;;;4873033;29;20056;-76
2022/10/22 13:36:28;;;;;;;13.77;2.50;;;16.30;99.90;;;;;;4842184;29;20061;-81
2022/10/22 13:38:54;;;;;;;8.15;2.20;;;16.80;99.90;;;;;;4853532;29;20057;-76
2022/10/22 13:41:26;;;;;;;13.48;2.35;;;16.10;99.90;;;;;;4858007;29;20073;-75
2022/10/22 13:43:52;;;;;;;12.82;2.25;;;16.10;99.90;;;;;;4866157;29;20105;-79
2022/10/22 13:46:19;;;;;;;16.30;2.05;;;16.00;99.90;;;;;;4859611;29;20052;-81
2022/10/22 13:48:46;;;;;;;9.07;1.85;;;15.90;99.90;;;;;;4858051;29;20080;-75
2022/10/22 13:51:23;;;;;;;13.50;2.45;;;16.30;99.90;;;;;;4860052;29;20052;-76
2022/10/22 13:53:52;;;;;;;12.38;2.15;;;15.80;99.90;;;;;;4857910;29;20116;-77
2022/10/22 13:56:19;;;;;;;8.43;2.30;;;15.80;99.90;;;;;;4873905;29;20057;-78
2022/10/22 13:58:47;;;;;;;14.57;2.15;;;15.70;99.90;;;;;;4858528;29;20049;-75
2022/10/22 14:01:32;;;;;;;8.43;1.63;;;16.20;99.90;;;;;;4842534;29;20412;-77
2022/10/22 14:04:00;;;;;;;5.80;1.45;;;15.60;99.90;;;;;;4854328;29;20057;-79
2022/10/22 14:06:30;;;;;;;5.07;1.20;;;16.60;99.90;;;;;;4858401;29;20061;-77
2022/10/22 14:08:58;;;;;;;7.93;1.23;;;15.70;99.90;;;;;;4861248;29;20044;-75
2022/10/22 14:11:26;;;;;;;3.38;0.60;;;15.60;99.90;;;;;;4856730;29;20502;-73
2022/10/22 14:13:52;;;;;;;10.48;1.75;;;16.10;99.90;;;;;;4859233;29;20046;-82
2022/10/22 14:16:20;;;;;;;6.88;1.42;;;15.50;99.90;;;;;;4843175;29;20038;-75
2022/10/22 14:18:47;;;;;;;3.78;0.70;;;15.40;99.90;;;;;;4856758;29;20053;-75
2022/10/22 14:21:14;;;;;;;6.20;0.88;;;15.40;99.90;;;;;;4872735;29;20144;-77
2022/10/22 14:23:41;;;;;;;5.25;0.90;;;15.40;99.90;;;;;;4856930;29;20117;-80
2022/10/22 14:26:31;;;;;;;6.40;0.80;;;15.30;99.90;;;;;;4873378;29;20140;-81
2022/10/22 14:28:58;;;;;;;7.65;1.10;;;15.30;99.90;;;;;;4862527;29;20065;-82
2022/10/22 14:31:24;;;;;;;7.57;1.27;;;15.30;99.90;;;;;;4843146;29;20106;-82
2022/10/22 14:33:49;;;;;;;10.02;1.67;;;15.30;99.90;;;;;;4859771;29;20493;-82
2022/10/22 14:36:17;;;;;;;8.77;1.23;;;15.30;99.90;;;;;;4872560;29;20060;-79
2022/10/22 14:38:46;;;;;;;11.18;1.73;;;15.30;99.90;;;;;;4858182;29;20050;-82
2022/10/22 14:41:24;;;;;;;5.93;1.02;;;16.10;99.90;;;;;;4873245;29;20045;-84
2022/10/22 14:43:51;;;;;;;5.20;0.85;;;15.70;99.90;;;;;;4861234;29;20037;-80
2022/10/22 14:46:18;;;;;;;9.48;1.10;;;15.40;99.90;;;;;;4858019;29;20080;-71
2022/10/22 14:48:44;;;;;;;8.57;1.42;;;16.60;99.90;;;;;;4858044;29;20477;-72
2022/10/22 14:51:14;;;;;;;8.48;1.15;;;15.50;99.90;;;;;;4856440;29;20045;-79
2022/10/22 14:53:41;;;;;;;8.73;1.67;;;15.40;99.90;;;;;;4857978;29;20139;-80
2022/10/22 14:56:09;;;;;;;8.90;1.60;;;15.20;99.90;;;;;;4857038;29;20149;-81
2022/10/22 14:58:35;;;;;;;10.02;1.50;;;15.40;99.90;;;;;;4857459;29;20053;-72
2022/10/22 15:01:02;;;;;;;7.85;1.88;;;15.50;99.90;;;;;;4858711;29;20046;-75
2022/10/22 15:03:27;;;;;;;9.50;1.08;;;15.40;99.90;;;;;;4861444;29;20053;-81
2022/10/22 15:05:54;;;;;;;5.47;0.90;;;15.40;99.90;;;;;;4859375;29;20080;-81
2022/10/22 15:08:20;;;;;;;10.27;1.98;;;15.50;99.90;;;;;;4855627;29;20541;-72
2022/10/22 15:10:56;;;;;;;8.50;1.23;;;15.50;99.90;;;;;;4841268;29;20074;-77
2022/10/22 15:13:22;;;;;;;7.03;1.67;;;15.50;99.90;;;;;;4858457;29;20041;-74
2022/10/22 15:15:47;;;;;;;10.48;1.65;;;16.30;99.90;;;;;;4858099;29;20041;-86
2022/10/22 15:18:13;;;;;;;10.98;2.08;;;15.40;99.90;;;;;;4855673;29;20089;-73
2022/10/22 15:20:39;;;;;;;10.38;1.95;;;16.30;99.90;;;;;;4858224;29;20397;-73
2022/10/22 15:23:04;;;;;;;13.88;2.53;;;15.40;99.90;;;;;;4857188;29;20083;-81
2022/10/22 15:25:30;;;;;;;16.05;2.50;;;15.40;99.90;;;;;;4857950;29;20048;-84
2022/10/22 15:27:56;;;;;;;16.30;2.15;;;15.40;99.90;;;;;;4871786;29;20050;-73
2022/10/22 15:30:22;;;;;;;16.35;2.58;;;15.50;99.90;;;;;;4857357;29;20053;-73
2022/10/22 15:32:47;;;;;;;11.38;2.55;;;15.20;99.90;;;;;;4857869;29;20037;-74
2022/10/22 15:35:13;;;;;;;12.73;2.13;;;15.90;99.90;;;;;;4856548;29;20063;-81
2022/10/22 15:37:39;;;;;;;12.57;2.58;;;15.30;99.90;;;;;;4856971;29;20089;-79
2022/10/22 15:40:06;;;;;;;16.55;2.80;;;15.00;99.90;;;;;;4858573;29;20045;-89
2022/10/22 15:42:32;;;;;;;12.48;2.20;;;15.00;99.90;;;;;;4857051;29;20045;-75
2022/10/22 15:44:58;;;;;;;14.98;2.15;;;14.90;99.90;;;;;;4858049;29;20104;-79
2022/10/22 15:47:27;;;;;;;10.65;2.53;;;14.90;99.90;;;;;;4856102;29;20049;-75
2022/10/22 15:49:53;;;;;;;16.98;3.42;;;14.90;99.90;;;;;;4856213;29;20041;-81
2022/10/22 15:52:22;;;;;;;17.90;3.50;;;15.00;99.90;;;;;;4856085;29;20401;-83
2022/10/22 15:54:48;;;;;;;14.87;3.10;;;14.80;99.90;;;;;;4183942;29;10000723;-82
2022/10/22 15:57:14;;;;;;;20.38;3.85;;;14.70;99.90;;;;;;4838247;29;20293;-73
2022/10/22 15:59:39;;;;;;;13.73;3.65;;;15.60;99.90;;;;;;4835888;29;20078;-74
2022/10/22 16:02:06;;;;;;;20.77;4.93;;;15.70;99.90;;;;;;4854219;29;20060;-78
2022/10/22 16:04:31;;;;;;;20.48;4.10;;;15.20;99.90;;;;;;4853897;29;20041;-77
2022/10/22 16:06:58;;;;;;;16.17;3.33;;;14.40;99.90;;;;;;4853521;29;20572;-74
2022/10/22 16:09:25;;;;;;;13.93;2.58;;;14.90;99.90;;;;;;4853028;29;20064;-78
2022/10/22 16:11:52;;;;;;;15.63;3.50;;;14.30;99.90;;;;;;4852769;29;20052;-73
2022/10/22 16:14:20;;;;;;;15.68;3.00;;;14.30;99.90;;;;;;4852030;29;20052;-76
2022/10/22 16:16:53;;;;;;;13.35;2.75;;;15.00;99.90;;;;;;4847856;29;20117;-73
2022/10/22 16:19:20;;;;;;;23.80;3.25;;;14.20;99.90;;;;;;4853582;29;20041;-74
2022/10/22 16:21:49;;;;;;;19.15;3.40;;;14.10;99.90;;;;;;4856876;29;20049;-74
2022/10/22 16:24:15;;;;;;;27.33;3.67;;;14.10;99.90;;;;;;4856096;29;20564;-73
2022/10/22 16:26:41;;;;;;;24.10;3.85;;;14.00;99.90;;;;;;4853217;29;20053;-74
2022/10/22 16:29:09;;;;;;;11.60;2.85;;;14.00;99.90;;;;;;4869428;29;20046;-80
2022/10/22 16:31:34;;;;;;;17.55;3.17;;;14.10;99.90;;;;;;4852866;29;20037;-74
2022/10/22 16:34:00;;;;;;;19.23;3.90;;;14.00;99.90;;;;;;4851826;29;20060;-75
2022/10/22 16:36:26;;;;;;;11.95;3.47;;;13.90;99.90;;;;;;4867374;29;20059;-74
2022/10/22 16:38:51;;;;;;;15.00;3.40;;;13.90;99.90;;;;;;4854292;29;20132;-75
2022/10/22 16:41:22;;;;;;;18.30;4.13;;;13.70;99.90;;;;;;4854850;29;20102;-74
2022/10/22 16:43:50;;;;;;;12.90;2.97;;;13.70;99.90;;;;;;4866111;29;20049;-75
2022/10/22 16:46:17;;;;;;;16.20;4.07;;;15.20;99.90;;;;;;4856642;29;20037;-73
2022/10/22 16:48:53;;;;;;;16.83;3.53;;;13.60;99.90;;;;;;4858733;29;20384;-74
2022/10/22 16:51:23;;;;;;;13.85;3.63;;;13.70;99.90;;;;;;4858060;29;20124;-73
2022/10/22 16:53:51;;;;;;;18.60;3.55;;;13.60;99.90;;;;;;4859783;29;20045;-74
2022/10/22 16:56:17;;;;;;;16.52;3.58;;;13.60;99.90;;;;;;4858709;29;20132;-74
2022/10/22 16:58:45;;;;;;;20.00;3.45;;;13.60;99.90;;;;;;4844813;29;20116;-84
2022/10/22 17:01:11;;;;;;;22.20;4.32;;;13.50;99.90;;;;;;4860519;29;20088;-73
2022/10/22 17:03:36;;;;;;;19.50;3.60;;;13.50;99.90;;;;;;4859082;29;20072;-75
2022/10/22 17:06:03;;;;;;;18.92;3.83;;;13.50;99.90;;;;;;4860653;29;20413;-74
2022/10/22 17:08:30;;;;;;;17.63;2.53;;;14.50;99.90;;;;;;4860636;29;20056;-77
2022/10/22 17:10:56;;;;;;;18.88;3.80;;;13.40;99.90;;;;;;4844373;29;20049;-75
2022/10/22 17:13:22;;;;;;;14.95;4.60;;;14.30;99.90;;;;;;4867261;29;20237;-78
2022/10/22 17:15:48;;;;;;;17.80;5.32;;;13.30;99.90;;;;;;4860875;29;20564;-74
2022/10/22 17:18:14;;;;;;;20.75;4.95;;;14.10;99.90;;;;;;4858436;29;20045;-74
2022/10/22 17:20:42;;;;;;;17.02;3.90;;;13.20;99.90;;;;;;4859615;29;20383;-74
2022/10/22 17:23:08;;;;;;;19.98;3.78;;;13.20;99.90;;;;;;4859631;29;20054;-78
2022/10/22 17:25:43;;;;;;;19.70;4.63;;;14.10;99.90;;;;;;4871172;29;20182;-74
2022/10/22 17:28:12;;;;;;;15.65;3.90;;;13.20;99.90;;;;;;4858829;29;20725;-76
2022/10/22 17:30:39;;;;;;;21.02;3.53;;;13.40;99.90;;;;;;4860161;29;20046;-73
2022/10/22 17:33:08;;;;;;;20.30;3.97;;;13.10;99.90;;;;;;4859659;29;20052;-78
2022/10/22 17:35:39;;;;;;;18.63;3.80;;;13.10;99.90;;;;;;4860561;29;20061;-73
2022/10/22 17:38:19;;;;;;;23.67;5.43;;;13.00;99.90;;;;;;5157893;27;20135;-79
2022/10/22 17:40:44;;;;;;;22.88;4.05;;;14.40;99.90;;;;;;5125938;27;20054;-75
2022/10/22 17:43:10;;;;;;;17.60;3.40;;;14.30;99.90;;;;;;5104672;28;20069;-78
2022/10/22 17:45:36;;;;;;;16.13;3.63;;;12.90;99.90;;;;;;5103889;28;20036;-73
2022/10/22 17:48:02;;;;;;;22.75;4.03;;;12.90;99.90;;;;;;5152554;27;20093;-74
2022/10/22 17:50:27;;;;;;;19.63;4.50;;;12.80;99.90;;;;;;5124442;27;20052;-73
2022/10/22 17:52:54;;;;;;;16.40;3.85;;;12.80;99.90;;;;;;5105441;28;20042;-74
2022/10/22 17:55:19;;;;;;;18.92;6.07;;;12.70;99.90;;;;;;5122456;28;20371;-73
2022/10/22 17:57:45;;;;;;;22.08;5.72;;;12.80;99.90;;;;;;5123845;27;20043;-73
2022/10/22 18:00:12;;;;;;;16.27;4.53;;;13.80;99.90;;;;;;5116194;28;20078;-83
2022/10/22 18:02:38;;;;;;;19.48;5.70;;;12.70;99.90;;;;;;5123514;28;20125;-73
2022/10/22 18:05:04;;;;;;;22.88;6.85;;;12.70;99.90;;;;;;5106549;28;20041;-75
2022/10/22 18:07:30;;;;;;;19.52;6.00;;;12.60;99.90;;;;;;5105887;28;20524;-72
2022/10/22 18:09:56;;;;;;;20.23;5.38;;;12.60;99.90;;;;;;5099735;28;20050;-75
2022/10/22 18:12:21;;;;;;;18.77;4.97;;;12.60;99.90;;;;;;5120293;27;20039;-74
2022/10/22 18:14:49;;;;;;;16.92;4.13;;;12.50;99.90;;;;;;5122804;28;20116;-77
2022/10/22 18:17:14;;;;;;;15.80;4.28;;;12.50;99.90;;;;;;5106632;28;20082;-73
2022/10/22 18:19:40;;;;;;;21.40;5.25;;;12.50;99.90;;;;;;5122446;27;20070;-75
2022/10/22 18:22:06;;;;;;;15.93;4.82;;;13.70;99.90;;;;;;5117690;27;20040;-76
2022/10/22 18:24:34;;;;;;;20.30;4.55;;;13.50;99.90;;;;;;5125328;28;20040;-83
2022/10/22 18:27:00;;;;;;;21.55;5.75;;;12.50;99.90;;;;;;5124509;27;20092;-74
2022/10/22 18:29:26;;;;;;;20.50;5.60;;;12.40;99.90;;;;;;5119295;28;20040;-73
2022/10/22 18:31:51;;;;;;;16.63;4.65;;;12.40;99.90;;;;;;5126811;27;20104;-72
2022/10/22 18:34:17;;;;;;;24.23;4.82;;;12.40;99.90;;;;;;5120724;28;20135;-82
2022/10/22 18:36:43;;;;;;;21.92;5.25;;;12.50;99.90;;;;;;5138655;27;20405;-78
2022/10/22 18:39:13;;;;;;;23.88;6.97;;;12.30;99.90;;;;;;5125712;28;20114;-75
2022/10/22 18:41:39;;;;;;;23.60;6.32;;;12.30;99.90;;;;;;5124298;27;20161;-77
2022/10/22 18:44:05;;;;;;;17.55;4.60;;;12.30;99.90;;;;;;5124196;28;20039;-75
2022/10/22 18:46:38;;;;;;;14.35;4.80;;;12.20;99.90;;;;;;5107951;28;20047;-78
2022/10/22 18:49:05;;;;;;;20.25;4.60;;;12.20;99.90;;;;;;5114003;28;20096;-79
2022/10/22 18:51:33;;;;;;;19.70;5.15;;;12.10;99.90;;;;;;5094222;28;20052;-78
2022/10/22 18:54:00;;;;;;;18.67;4.28;;;12.10;99.90;;;;;;5110291;28;20791;-73
2022/10/22 18:56:26;;;;;;;14.05;4.35;;;12.10;99.90;;;;;;5108703;28;20042;-74
2022/10/22 18:58:52;;;;;;;22.30;5.97;;;12.10;99.90;;;;;;5111379;28;20036;-74
2022/10/22 19:01:20;;;;;;;26.75;5.97;;;12.10;99.90;;;;;;5112518;28;20169;-78
2022/10/22 19:03:46;;;;;;;20.55;6.45;;;12.00;99.90;;;;;;5104176;28;20451;-73
2022/10/22 19:06:14;;;;;;;22.60;6.60;;;12.00;99.90;;;;;;5107081;28;20036;-77
2022/10/22 19:08:40;;;;;;;20.85;6.97;;;12.00;99.90;;;;;;5110696;28;20043;-80
2022/10/22 19:11:14;;;;;;;22.20;6.40;;;12.00;99.90;;;;;;5083966;28;20058;-82
2022/10/22 19:13:40;;;;;;;19.35;5.82;;;12.00;99.90;;;;;;5108050;28;20036;-75
2022/10/22 19:16:08;;;;;;;17.55;6.00;;;12.00;99.90;;;;;;5103916;28;20118;-76
2022/10/22 19:18:37;;;;;;;24.92;7.28;;;12.00;99.90;;;;;;5106523;28;20056;-79
2022/10/22 19:21:03;;;;;;;18.50;5.07;;;12.00;99.90;;;;;;5107287;27;20478;-74
2022/10/22 19:23:29;;;;;;;19.75;5.78;;;12.00;99.90;;;;;;5105951;27;20043;-73
2022/10/22 19:26:04;;;;;;;18.50;7.38;;;12.00;99.90;;;;;;5105048;28;20028;-74
2022/10/22 19:28:29;;;;;;;17.30;4.88;;;11.90;99.90;;;;;;5100720;28;20039;-74
2022/10/22 19:30:56;;;;;;;19.65;4.72;;;11.90;99.90;;;;;;5086389;28;20474;-73
2022/10/22 19:33:21;;;;;;;15.55;4.63;;;11.90;99.90;;;;;;5107251;28;20339;-74
2022/10/22 19:35:47;;;;;;;17.80;4.82;;;11.90;99.90;;;;;;5104695;28;20062;-72
2022/10/22 19:38:13;;;;;;;19.75;5.65;;;12.30;99.90;;;;;;5100295;27;20051;-73
2022/10/22 19:40:40;;;;;;;14.25;5.32;;;11.90;99.90;;;;;;5101385;28;20048;-74
2022/10/22 19:43:06;;;;;;;16.77;5.22;;;11.90;99.90;;;;;;5101897;28;20043;-78
2022/10/22 19:45:32;;;;;;;16.13;6.13;;;11.80;99.90;;;;;;5081531;28;20047;-74
2022/10/22 19:47:57;;;;;;;21.80;8.00;;;11.80;99.90;;;;;;5128688;27;20036;-74
2022/10/22 19:50:23;;;;;;;17.52;6.55;;;11.70;99.90;;;;;;5108236;27;20050;-75
2022/10/22 19:52:50;;;;;;;18.65;7.00;;;11.70;99.90;;;;;;5086201;28;20047;-73
2022/10/22 19:55:16;;;;;;;15.15;6.97;;;12.40;99.90;;;;;;5102055;28;20084;-74
2022/10/22 19:57:41;;;;;;;24.92;6.97;;;11.70;99.90;;;;;;5099631;28;20063;-74
2022/10/22 20:00:08;;;;;;;19.42;6.30;;;11.70;99.90;;;;;;5100253;28;20036;-82
2022/10/22 20:02:35;;;;;;;17.23;6.68;;;11.70;99.90;;;;;;5104845;28;20862;-73
2022/10/22 20:05:01;;;;;;;26.40;6.03;;;13.00;99.90;;;;;;5102748;28;20039;-75
2022/10/22 20:07:27;;;;;;;20.05;6.45;;;11.60;99.90;;;;;;5104294;28;20426;-73
2022/10/22 20:09:53;;;;;;;14.52;5.43;;;11.60;99.90;;;;;;5107345;28;20085;-77
2022/10/22 20:12:19;;;;;;;16.60;4.72;;;12.90;99.90;;;;;;5089630;28;20432;-75
2022/10/22 20:14:45;;;;;;;17.17;5.20;;;11.60;99.90;;;;;;5106403;28;20044;-74
2022/10/22 20:17:10;;;;;;;15.57;4.70;;;11.60;99.90;;;;;;5101551;28;20054;-82
2022/10/22 20:19:36;;;;;;;16.42;4.20;;;11.60;99.90;;;;;;5082332;28;20109;-73
2022/10/22 20:22:02;;;;;;;16.63;4.50;;;11.60;99.90;;;;;;5101364;28;20130;-75
2022/10/22 20:24:27;;;;;;;19.20;3.75;;;11.60;99.90;;;;;;5129842;27;20491;-74